Time;durP1;ratioP1;P1;durP2;ratioP2;P2;SDS_P1;SDS_P2;PMS_P1;PMS_P2;Temp;Humidity;BMP_temperature;BMP_pressure;BME280_temperature;BME280_humidity;BME280_pressure;Samples;Min_cycle;Max_cycle;Signal;HPM_P1;HPM_P2
2022/07/20 00:00:09;;;;;;;3.17;2.75;;;;;;;21.74;48.99;100120.94;4992843;28;20062;-58
2022/07/20 00:02:37;;;;;;;4.63;2.78;;;;;;;21.69;48.24;100113.63;4992656;28;20065;-58
2022/07/20 00:05:05;;;;;;;4.03;3.13;;;;;;;21.62;48.42;100111.56;4992547;28;20058;-58
2022/07/20 00:07:33;;;;;;;4.18;3.30;;;;;;;21.56;48.14;100104.66;4992735;28;20051;-58
2022/07/20 00:12:46;;;;;;;3.63;2.65;;;;;;;21.46;47.56;100108.25;4998904;28;20065;-58
2022/07/20 00:15:14;;;;;;;3.20;2.80;;;;;;;21.43;47.53;100111.91;4992831;28;20062;-58
2022/07/20 00:17:41;;;;;;;3.95;2.90;;;;;;;21.38;47.93;100104.56;4992431;28;20050;-59
2022/07/20 00:20:10;;;;;;;6.68;3.08;;;;;;;21.36;47.78;100109.81;4992740;28;20506;-58
2022/07/20 00:22:37;;;;;;;3.50;3.00;;;;;;;21.30;47.73;100102.91;4992740;28;20062;-58
2022/07/20 00:25:05;;;;;;;5.03;2.90;;;;;;;21.26;47.92;100104.91;4992771;28;20065;-58
2022/07/20 00:27:32;;;;;;;7.53;2.95;;;;;;;21.21;47.63;100100.44;4992727;28;20051;-58
2022/07/20 00:30:01;;;;;;;3.95;2.60;;;;;;;21.18;47.85;100100.41;4992520;28;20494;-58
2022/07/20 00:32:29;;;;;;;4.45;2.83;;;;;;;21.16;47.80;100105.66;4992406;28;20062;-59
2022/07/20 00:34:56;;;;;;;3.92;3.00;;;;;;;21.11;47.97;100100.38;4992643;28;20476;-58
2022/07/20 00:37:23;;;;;;;3.92;2.80;;;;;;;21.05;48.34;100097.91;4992380;28;20073;-58
2022/07/20 00:39:50;;;;;;;4.43;3.10;;;;;;;21.01;48.50;100101.94;4992704;28;20058;-58
2022/07/20 00:42:18;;;;;;;5.68;3.30;;;;;;;20.95;48.60;100104.31;4992044;28;20054;-56
2022/07/20 00:44:45;;;;;;;4.93;2.88;;;;;;;20.88;48.75;100099.41;4992161;28;20054;-59
2022/07/20 00:47:14;;;;;;;4.45;3.38;;;;;;;20.86;48.87;100089.69;4992552;28;20058;-58
2022/07/20 00:49:41;;;;;;;3.85;3.28;;;;;;;20.82;49.10;100098.16;4992077;28;20150;-58
2022/07/20 00:52:09;;;;;;;4.10;3.08;;;;;;;20.80;49.21;100094.91;4992103;28;20054;-59
2022/07/20 00:54:38;;;;;;;4.75;3.17;;;;;;;20.76;49.36;100090.44;4992482;28;20373;-58
2022/07/20 00:57:05;;;;;;;5.85;3.58;;;;;;;20.74;49.08;100087.19;4992363;28;20051;-57
2022/07/20 00:59:32;;;;;;;3.97;3.30;;;;;;;20.68;49.35;100087.56;4992180;28;20061;-58
2022/07/20 01:02:00;;;;;;;4.78;3.15;;;;;;;20.61;49.38;100081.84;4992493;28;20054;-58
2022/07/20 01:04:28;;;;;;;5.35;3.20;;;;;;;20.59;49.07;100080.59;4992129;28;20062;-58
2022/07/20 01:06:56;;;;;;;4.80;3.20;;;;;;;20.55;49.19;100077.72;4992286;28;20047;-58
2022/07/20 01:09:24;;;;;;;3.78;2.97;;;;;;;20.55;48.92;100079.72;4991738;28;20222;-58
2022/07/20 01:11:51;;;;;;;4.00;2.78;;;;;;;20.52;48.98;100077.69;4992132;28;20506;-58
2022/07/20 01:14:19;;;;;;;3.83;3.42;;;;;;;20.47;49.20;100070.38;4992289;28;20070;-58
2022/07/20 01:16:46;;;;;;;5.00;3.45;;;;;;;20.44;49.29;100071.97;4994862;28;20062;-58
2022/07/20 01:19:13;;;;;;;4.82;3.47;;;;;;;20.41;49.16;100069.09;4995173;28;20061;-58
2022/07/20 01:21:42;;;;;;;6.22;3.30;;;;;;;20.40;49.44;100067.50;4995439;28;20065;-58
2022/07/20 01:24:10;;;;;;;6.53;2.90;;;;;;;20.36;49.61;100072.31;4995243;28;20055;-59
2022/07/20 01:26:38;;;;;;;4.90;3.20;;;;;;;20.31;49.63;100065.00;4995186;28;20057;-58
2022/07/20 01:29:05;;;;;;;4.22;3.55;;;;;;;20.28;50.15;100069.44;4995294;28;20073;-58
2022/07/20 01:31:33;;;;;;;3.28;2.80;;;;;;;20.25;50.25;100060.91;4995032;28;20057;-58
2022/07/20 01:34:00;;;;;;;4.07;2.88;;;;;;;20.23;50.27;100069.78;4995388;28;20058;-58
2022/07/20 01:36:27;;;;;;;4.35;3.50;;;;;;;20.21;50.67;100060.88;4995165;28;20487;-58
2022/07/20 01:38:56;;;;;;;3.90;3.22;;;;;;;20.19;50.83;100056.81;4995145;28;20058;-58
2022/07/20 01:41:24;;;;;;;5.90;3.72;;;;;;;20.16;50.92;100057.56;4995400;28;20065;-58
2022/07/20 01:43:51;;;;;;;5.97;3.22;;;;;;;20.12;50.83;100056.75;4994896;28;20051;-58
2022/07/20 01:46:19;;;;;;;3.53;3.15;;;;;;;20.09;51.10;100052.66;4995163;28;20050;-58
2022/07/20 01:48:46;;;;;;;4.65;3.47;;;;;;;20.08;50.94;100057.53;4994695;28;20054;-58
2022/07/20 01:51:13;;;;;;;6.13;3.72;;;;;;;20.05;50.92;100051.81;4995066;28;20054;-58
2022/07/20 01:53:41;;;;;;;5.07;3.63;;;;;;;20.01;51.09;100045.31;4994810;28;20062;-58
2022/07/20 01:56:09;;;;;;;5.43;3.67;;;;;;;20.03;52.36;100054.22;4995662;28;20057;-58
2022/07/20 01:58:37;;;;;;;4.10;3.42;;;;;;;20.00;53.01;100049.34;4994561;28;20488;-58
2022/07/20 02:01:04;;;;;;;5.72;3.55;;;;;;;19.97;53.23;100055.78;4995021;28;20427;-58
2022/07/20 02:03:31;;;;;;;6.85;3.53;;;;;;;19.92;53.71;100048.47;4994411;28;20057;-59
2022/07/20 02:05:59;;;;;;;4.90;3.25;;;;;;;19.92;53.62;100050.50;5013310;28;20053;-58
2022/07/20 02:08:28;;;;;;;6.53;3.45;;;;;;;19.89;53.60;100039.97;5013876;28;20061;-58
2022/07/20 02:10:56;;;;;;;4.60;3.60;;;;;;;19.85;53.85;100042.75;5014315;28;20057;-59
2022/07/20 02:13:24;;;;;;;4.80;3.63;;;;;;;19.81;53.79;100042.72;5013711;28;20101;-59
2022/07/20 02:18:47;;;;;;;4.40;3.30;;;;;;;19.75;54.17;100046.28;4957219;28;20492;-58
2022/07/20 02:21:15;;;;;;;6.53;3.63;;;;;;;19.73;54.42;100051.50;5014458;28;20137;-59
2022/07/20 02:23:42;;;;;;;4.93;3.65;;;;;;;19.72;54.46;100047.03;5013530;28;20061;-58
2022/07/20 02:26:10;;;;;;;7.15;3.47;;;;;;;19.69;54.56;100040.13;5014056;28;20054;-58
2022/07/20 02:28:39;;;;;;;7.20;3.97;;;;;;;19.64;54.55;100046.13;5012393;28;20483;-59
2022/07/20 02:31:07;;;;;;;5.45;4.35;;;;;;;19.63;54.58;100047.31;5013583;28;20525;-58
2022/07/20 02:33:34;;;;;;;7.15;4.55;;;;;;;19.61;54.58;100044.06;5013580;28;20049;-58
2022/07/20 02:36:02;;;;;;;6.03;4.00;;;;;;;19.61;54.87;100044.06;5013864;28;20053;-59
2022/07/20 02:38:29;;;;;;;5.18;4.03;;;;;;;19.59;54.75;100043.63;5013577;28;20050;-59
2022/07/20 02:40:56;;;;;;;5.95;4.07;;;;;;;19.59;54.71;100054.94;5013744;28;20057;-59
2022/07/20 02:43:24;;;;;;;5.25;4.43;;;;;;;19.57;54.81;100041.22;5013375;28;20060;-58
2022/07/20 02:45:52;;;;;;;5.65;4.07;;;;;;;19.57;55.07;100041.22;5013700;28;20415;-58
2022/07/20 02:48:20;;;;;;;5.07;3.90;;;;;;;19.58;54.74;100033.56;5013328;28;20080;-58
2022/07/20 02:50:47;;;;;;;5.05;3.70;;;;;;;19.55;55.03;100039.97;5013145;28;20487;-58
2022/07/20 02:53:15;;;;;;;5.50;4.13;;;;;;;19.51;54.92;100033.44;5013504;28;20058;-58
2022/07/20 02:55:44;;;;;;;7.20;4.35;;;;;;;19.52;54.94;100033.06;5013634;28;20049;-60
2022/07/20 02:58:12;;;;;;;5.03;4.30;;;;;;;19.48;54.90;100032.22;5013548;28;20497;-60
2022/07/20 03:00:40;;;;;;;5.28;4.38;;;;;;;19.50;54.88;100029.03;5013094;28;20069;-59
2022/07/20 03:03:10;;;;;;;7.50;4.80;;;;;;;19.51;54.49;100016.50;5013071;28;20054;-59
2022/07/20 03:05:38;;;;;;;5.95;4.07;;;;;;;19.49;54.92;100014.09;5012984;28;20061;-59
2022/07/20 03:08:06;;;;;;;4.95;4.20;;;;;;;19.48;54.67;100029.41;5012865;28;20060;-59
2022/07/20 03:10:33;;;;;;;4.63;4.13;;;;;;;19.45;54.66;100025.34;5012796;28;20057;-59
2022/07/20 03:13:00;;;;;;;6.38;4.70;;;;;;;19.45;54.83;100028.16;5013322;28;20407;-59
2022/07/20 03:15:28;;;;;;;6.72;4.25;;;;;;;19.46;54.58;100029.81;5012918;28;20076;-59
2022/07/20 03:17:56;;;;;;;4.97;4.47;;;;;;;19.46;54.76;100024.16;5012896;28;20057;-59
2022/07/20 03:20:26;;;;;;;6.97;4.68;;;;;;;19.48;54.97;100030.19;5013029;28;20065;-59
2022/07/20 03:22:54;;;;;;;5.05;4.10;;;;;;;19.47;55.12;100028.59;5012533;28;20068;-60
2022/07/20 03:25:22;;;;;;;5.93;4.78;;;;;;;19.47;54.78;100030.59;5012874;28;20065;-60
2022/07/20 03:27:53;;;;;;;5.80;4.13;;;;;;;19.48;54.35;100035.84;5012193;28;20065;-65
2022/07/20 03:30:20;;;;;;;7.50;4.22;;;;;;;19.50;54.26;100029.03;5012501;28;20053;-59
2022/07/20 03:32:48;;;;;;;9.40;4.90;;;;;;;19.53;53.89;100036.72;5012746;28;20061;-60
2022/07/20 03:35:15;;;;;;;7.80;4.72;;;;;;;19.53;53.62;100028.22;5012679;28;20050;-60
2022/07/20 03:37:44;;;;;;;6.05;4.55;;;;;;;19.57;54.01;100029.09;5012082;28;20069;-60
2022/07/20 03:40:12;;;;;;;6.85;4.55;;;;;;;19.56;53.71;100028.28;5012614;28;20053;-60
2022/07/20 03:42:40;;;;;;;5.15;4.25;;;;;;;19.57;53.97;100037.56;5012498;28;20060;-59
2022/07/20 03:45:08;;;;;;;6.53;5.32;;;;;;;19.59;54.06;100041.66;5012399;28;20056;-60
2022/07/20 03:47:36;;;;;;;5.15;4.50;;;;;;;19.60;53.90;100043.25;5012365;28;20057;-59
2022/07/20 03:50:03;;;;;;;4.60;4.20;;;;;;;19.61;54.00;100044.06;5012532;28;20049;-61
2022/07/20 03:52:30;;;;;;;6.30;4.68;;;;;;;19.59;54.61;100047.31;5012338;28;20058;-61
2022/07/20 03:54:59;;;;;;;6.78;4.70;;;;;;;19.63;54.22;100052.97;5012634;28;20049;-61
2022/07/20 03:57:26;;;;;;;6.53;4.72;;;;;;;19.63;54.03;100052.97;5012638;28;20057;-61
2022/07/20 03:59:54;;;;;;;7.35;4.25;;;;;;;19.64;54.24;100051.78;5012186;28;20493;-61
2022/07/20 04:02:21;;;;;;;7.05;4.45;;;;;;;19.67;54.30;100054.66;5012352;28;20053;-61
2022/07/20 04:04:48;;;;;;;4.93;4.43;;;;;;;19.71;54.24;100049.06;5012064;28;20054;-60
2022/07/20 04:07:16;;;;;;;6.78;4.72;;;;;;;19.74;54.46;100048.28;5012146;28;20054;-60
2022/07/20 04:09:46;;;;;;;6.60;4.75;;;;;;;19.67;54.68;100046.19;5012201;28;20062;-61
2022/07/20 04:12:17;;;;;;;7.15;4.47;;;;;;;19.64;54.68;100051.78;5012422;28;20053;-60
2022/07/20 04:14:45;;;;;;;5.72;4.68;;;;;;;19.67;54.36;100039.69;5011789;28;20065;-61
2022/07/20 04:17:12;;;;;;;7.65;5.00;;;;;;;19.72;54.46;100039.41;5012021;28;20061;-60
2022/07/20 04:19:40;;;;;;;6.57;5.00;;;;;;;19.76;54.41;100051.56;5011994;28;20073;-61
2022/07/20 04:22:07;;;;;;;6.57;4.28;;;;;;;19.82;54.65;100050.00;5012256;28;20061;-60
2022/07/20 04:24:35;;;;;;;7.15;4.82;;;;;;;19.71;54.33;100040.56;5012022;28;20057;-60
2022/07/20 04:27:03;;;;;;;7.22;4.60;;;;;;;19.84;54.06;100049.59;5011997;28;20418;-61
2022/07/20 04:29:32;;;;;;;6.93;4.53;;;;;;;19.89;54.11;100042.78;5012343;28;20057;-61
2022/07/20 04:32:00;;;;;;;7.18;5.35;;;;;;;19.91;53.94;100041.19;5011869;28;20057;-61
2022/07/20 04:34:28;;;;;;;8.38;4.90;;;;;;;19.97;53.84;100050.13;5012410;28;20141;-61
2022/07/20 04:36:55;;;;;;;11.18;5.13;;;;;;;20.05;53.70;100049.81;5011579;28;20053;-60
2022/07/20 04:39:23;;;;;;;9.00;5.00;;;;;;;20.14;53.47;100048.66;5011977;28;20060;-60
2022/07/20 04:41:50;;;;;;;9.40;5.20;;;;;;;20.23;53.06;100047.16;5011692;28;20053;-60
2022/07/20 04:44:18;;;;;;;5.47;4.60;;;;;;;20.32;52.40;100054.50;5011837;28;20050;-61
2022/07/20 04:46:46;;;;;;;5.97;4.53;;;;;;;20.36;52.07;100052.50;5011811;28;20415;-61
2022/07/20 04:49:14;;;;;;;5.80;4.43;;;;;;;20.43;52.02;100061.03;5011702;28;20046;-60
2022/07/20 04:51:44;;;;;;;6.40;4.15;;;;;;;20.46;51.85;100052.59;5013911;28;20050;-61
2022/07/20 04:54:11;;;;;;;4.43;4.03;;;;;;;20.51;52.17;100056.25;5015215;28;20053;-60
2022/07/20 04:56:39;;;;;;;7.22;4.30;;;;;;;20.51;52.12;100062.72;5015284;28;20054;-59
2022/07/20 04:59:06;;;;;;;6.25;4.03;;;;;;;20.61;52.38;100081.84;5015257;28;20046;-59
2022/07/20 05:01:33;;;;;;;5.22;4.03;;;;;;;20.68;52.49;100090.41;5015080;28;20053;-59
2022/07/20 05:04:02;;;;;;;6.25;3.90;;;;;;;20.75;52.56;100088.81;5014988;28;20419;-59
2022/07/20 05:06:29;;;;;;;5.95;4.13;;;;;;;20.80;52.30;100091.28;5015199;28;20054;-61
2022/07/20 05:08:57;;;;;;;7.32;4.40;;;;;;;20.87;52.36;100091.31;5015168;28;20057;-60
2022/07/20 05:11:26;;;;;;;11.10;5.05;;;;;;;20.97;51.98;100096.25;5015074;28;20058;-61
2022/07/20 05:13:53;;;;;;;7.13;4.35;;;;;;;20.95;52.59;100092.19;5015199;28;20049;-61
2022/07/20 05:16:21;;;;;;;11.23;4.15;;;;;;;20.99;52.59;100085.31;5015479;28;20057;-61
2022/07/20 05:18:48;;;;;;;8.50;4.35;;;;;;;21.14;52.16;100093.91;5014769;28;20046;-60
2022/07/20 05:21:17;;;;;;;6.00;3.90;;;;;;;21.29;51.94;100095.59;5015468;28;20470;-60
2022/07/20 05:23:44;;;;;;;7.55;4.15;;;;;;;21.42;51.82;100116.78;5015001;28;20475;-60
2022/07/20 05:26:11;;;;;;;6.60;4.13;;;;;;;21.55;51.62;100122.09;5015297;28;20524;-60
2022/07/20 05:28:41;;;;;;;5.72;3.83;;;;;;;21.69;51.11;100120.13;5014484;28;20329;-60
2022/07/20 05:31:08;;;;;;;;;;;;;;;21.83;50.24;100112.88;5015074;28;20503;-60
2022/07/20 05:33:36;;;;;;;5.13;3.90;;;;;;;22.01;49.77;100107.25;5014558;28;19921;-59
2022/07/20 05:36:04;;;;;;;4.35;3.67;;;;;;;22.24;48.22;100116.25;5014582;28;20061;-61
2022/07/20 05:38:32;;;;;;;8.80;4.40;;;;;;;22.45;48.41;100118.28;5014982;28;20065;-61
2022/07/20 05:41:00;;;;;;;5.22;3.38;;;;;;;22.63;48.09;100118.28;5014783;28;20090;-60
2022/07/20 05:43:27;;;;;;;4.95;3.55;;;;;;;22.79;47.88;100134.13;5014783;28;20058;-60
2022/07/20 05:45:54;;;;;;;5.72;4.00;;;;;;;22.98;47.20;100130.84;5014669;28;20054;-60
2022/07/20 05:48:22;;;;;;;7.05;3.80;;;;;;;23.13;46.70;100134.50;5014367;28;20057;-61
2022/07/20 05:50:49;;;;;;;7.35;4.10;;;;;;;23.30;46.19;100130.00;5014517;28;20049;-60
2022/07/20 05:53:16;;;;;;;5.90;3.80;;;;;;;23.49;45.72;100134.41;5014278;28;20065;-60
2022/07/20 05:55:46;;;;;;;5.15;3.45;;;;;;;23.65;44.67;100139.66;5014455;28;20049;-60
2022/07/20 05:58:13;;;;;;;7.05;3.60;;;;;;;23.86;44.82;100144.47;5014432;28;20069;-60
2022/07/20 06:00:41;;;;;;;9.15;3.60;;;;;;;24.15;43.41;100128.06;5014456;28;20054;-60
2022/07/20 06:03:08;;;;;;;7.45;3.63;;;;;;;24.56;40.01;100129.41;5013971;28;20069;-60
2022/07/20 06:05:36;;;;;;;4.85;3.38;;;;;;;24.92;38.35;100139.28;5014384;28;20474;-60
2022/07/20 06:08:04;;;;;;;5.43;3.40;;;;;;;25.34;37.31;100147.84;5014581;28;20057;-61
2022/07/20 06:10:33;;;;;;;6.53;3.17;;;;;;;25.67;35.83;100156.84;5014512;28;20050;-61
2022/07/20 06:13:05;;;;;;;5.80;3.08;;;;;;;26.01;35.21;100156.03;5014031;28;20496;-60
2022/07/20 06:15:33;;;;;;;7.07;3.60;;;;;;;26.40;33.92;100155.47;5013931;28;20053;-60
2022/07/20 06:18:01;;;;;;;8.77;3.92;;;;;;;26.75;32.66;100159.03;5013808;28;20073;-60
2022/07/20 06:20:28;;;;;;;12.20;3.67;;;;;;;27.07;31.84;100169.91;5014362;28;20054;-60
2022/07/20 06:22:56;;;;;;;5.47;3.38;;;;;;;27.39;31.22;100162.03;5013728;28;20054;-60
2022/07/20 06:25:23;;;;;;;4.95;3.33;;;;;;;27.67;31.17;100163.50;5014188;28;20483;-60
2022/07/20 06:27:51;;;;;;;5.45;3.35;;;;;;;27.94;30.32;100166.25;5013686;28;20050;-60
2022/07/20 06:30:20;;;;;;;5.72;3.42;;;;;;;28.19;29.84;100165.69;5013660;28;20060;-61
2022/07/20 06:32:47;;;;;;;5.55;3.28;;;;;;;28.42;29.46;100166.81;5013953;28;20486;-60
2022/07/20 06:35:16;;;;;;;5.13;2.95;;;;;;;28.60;29.31;100172.16;5014166;28;20502;-60
2022/07/20 06:37:43;;;;;;;4.88;3.15;;;;;;;28.77;28.91;100187.28;5013525;28;20045;-60
2022/07/20 06:40:11;;;;;;;6.30;3.53;;;;;;;28.92;28.67;100186.50;5013820;28;20402;-60
2022/07/20 06:42:38;;;;;;;10.30;3.53;;;;;;;29.05;28.39;100186.56;5013632;28;20076;-60
2022/07/20 06:45:07;;;;;;;5.53;2.85;;;;;;;29.17;28.85;100184.25;5013688;28;20402;-61
2022/07/20 06:47:36;;;;;;;3.72;3.10;;;;;;;29.26;29.03;100184.44;5013494;28;20054;-60
2022/07/20 06:50:04;;;;;;;7.68;3.40;;;;;;;29.42;28.36;100184.41;5013585;28;20391;-60
2022/07/20 06:52:31;;;;;;;8.05;3.70;;;;;;;29.47;28.01;100186.72;5013595;28;20440;-60
2022/07/20 06:54:59;;;;;;;4.55;3.65;;;;;;;29.60;27.95;100195.38;5013393;28;20487;-60
2022/07/20 06:57:26;;;;;;;5.65;3.63;;;;;;;29.69;27.85;100203.34;5013205;28;20058;-60
2022/07/20 06:59:53;;;;;;;7.32;3.83;;;;;;;29.81;27.95;100208.34;5013207;28;20410;-60
2022/07/20 07:02:21;;;;;;;6.07;3.13;;;;;;;29.85;27.72;100202.53;5013552;28;20069;-60
2022/07/20 07:04:49;;;;;;;7.90;3.08;;;;;;;29.95;27.42;100202.22;5003961;28;20058;-60
2022/07/20 07:07:17;;;;;;;7.00;3.85;;;;;;;30.02;27.96;100200.38;4993976;28;20058;-60
2022/07/20 07:09:44;;;;;;;5.18;3.10;;;;;;;30.11;27.65;100201.34;4993162;28;20058;-60
2022/07/20 07:12:11;;;;;;;5.25;3.15;;;;;;;30.22;27.38;100203.06;4993735;28;20414;-60
2022/07/20 07:14:39;;;;;;;5.25;3.53;;;;;;;30.30;27.19;100213.94;4993137;28;20055;-60
2022/07/20 07:17:06;;;;;;;9.27;3.92;;;;;;;30.35;27.92;100203.94;4993222;28;20065;-60
2022/07/20 07:19:34;;;;;;;5.00;3.50;;;;;;;30.46;27.42;100217.97;4993252;28;20065;-60
2022/07/20 07:22:03;;;;;;;5.50;3.10;;;;;;;30.49;27.21;100220.72;4992967;28;20058;-60
2022/07/20 07:24:30;;;;;;;5.43;3.47;;;;;;;30.53;27.18;100223.47;4993379;28;20057;-59
2022/07/20 07:26:57;;;;;;;4.78;3.10;;;;;;;30.55;26.79;100230.41;4993327;28;20058;-60
2022/07/20 07:29:25;;;;;;;4.80;3.28;;;;;;;30.67;27.33;100220.16;4993030;28;20054;-60
2022/07/20 07:31:53;;;;;;;4.55;2.85;;;;;;;30.73;26.62;100229.81;4992892;28;20393;-60
2022/07/20 07:34:20;;;;;;;6.00;3.50;;;;;;;30.79;28.44;100232.13;4993062;28;20057;-60
2022/07/20 07:36:49;;;;;;;8.50;3.58;;;;;;;30.80;29.20;100236.59;4993365;28;20050;-60
2022/07/20 07:39:17;;;;;;;5.65;3.17;;;;;;;30.77;29.10;100246.16;4993192;28;20496;-60
2022/07/20 07:41:45;;;;;;;6.57;4.00;;;;;;;30.82;29.37;100251.31;4992994;28;20399;-59
2022/07/20 07:44:12;;;;;;;8.55;4.20;;;;;;;30.73;29.71;100258.56;4992891;28;20057;-60
2022/07/20 07:46:40;;;;;;;5.90;4.18;;;;;;;30.83;29.26;100267.34;4992802;28;20058;-60
2022/07/20 07:49:07;;;;;;;11.25;4.80;;;;;;;31.02;28.66;100266.31;4992846;28;20054;-60
2022/07/20 07:51:34;;;;;;;10.40;4.90;;;;;;;31.67;28.35;100281.44;4992682;28;20054;-60
2022/07/20 07:54:02;;;;;;;7.40;5.35;;;;;;;32.24;27.08;100290.88;4992755;28;20058;-60
2022/07/20 07:56:30;;;;;;;10.15;5.88;;;;;;;32.90;26.92;100296.56;4992762;28;20062;-61
2022/07/20 07:58:57;;;;;;;;;;;;;;;33.54;26.41;100301.78;4993628;28;20058;-60
2022/07/20 08:01:25;;;;;;;14.25;7.47;;;;;;;33.92;26.63;100305.56;4992482;28;19926;-60
2022/07/20 08:03:52;;;;;;;11.65;7.82;;;;;;;34.42;26.01;100305.38;4992614;28;20058;-60
2022/07/20 08:06:19;;;;;;;12.82;8.50;;;;;;;34.90;25.69;100320.06;4992535;28;20165;-60
2022/07/20 08:08:47;;;;;;;14.73;9.68;;;;;;;35.16;25.02;100324.16;4992812;28;20065;-60
2022/07/20 08:11:15;;;;;;;10.77;9.68;;;;;;;35.51;24.66;100329.47;4993075;28;20050;-61
2022/07/20 08:13:43;;;;;;;10.88;9.68;;;;;;;36.09;24.61;100329.41;4992612;28;20499;-60
2022/07/20 08:16:11;;;;;;;;;;;;;;;36.28;24.36;100336.66;4993450;28;20058;-61
2022/07/20 08:18:38;;;;;;;13.75;10.40;;;;;;;36.88;23.43;100352.03;4992479;28;19922;-61
2022/07/20 08:21:05;;;;;;;13.93;10.52;;;;;;;37.50;23.18;100349.34;4992530;28;20484;-61
2022/07/20 08:23:33;;;;;;;12.93;11.23;;;;;;;37.58;23.46;100353.47;4992884;28;20055;-61
2022/07/20 08:26:00;;;;;;;14.18;12.77;;;;;;;37.89;22.98;100369.50;4996000;28;20061;-61
2022/07/20 08:28:27;;;;;;;17.83;12.18;;;;;;;37.75;23.48;100365.31;4996712;28;20069;-61
2022/07/20 08:30:56;;;;;;;14.57;13.05;;;;;;;37.82;23.62;100379.44;4996124;28;20054;-61
2022/07/20 08:33:24;;;;;;;16.77;11.93;;;;;;;38.27;23.15;100382.94;4996750;28;20050;-60
2022/07/20 08:35:54;;;;;;;21.57;14.03;;;;;;;38.85;22.70;100385.97;4995899;28;20050;-61
2022/07/20 08:38:21;;;;;;;17.45;13.82;;;;;;;38.75;22.85;100390.38;4996380;28;20058;-61
2022/07/20 08:40:49;;;;;;;17.92;13.18;;;;;;;39.40;22.32;100384.09;4996181;28;20060;-60
2022/07/20 08:43:17;;;;;;;15.55;13.38;;;;;;;39.96;21.76;100392.41;4996455;28;20065;-61
2022/07/20 08:45:46;;;;;;;15.00;13.50;;;;;;;40.46;21.13;100403.50;4996465;28;20054;-60
2022/07/20 08:48:18;;;;;;;15.65;13.23;;;;;;;41.25;20.26;100397.84;4996313;28;20065;-61
2022/07/20 08:50:47;;;;;;;15.85;14.18;;;;;;;40.83;20.54;100396.72;4996339;28;20050;-61
2022/07/20 08:53:14;;;;;;;14.80;13.38;;;;;;;41.70;20.40;100409.47;4995917;28;20050;-59
2022/07/20 08:55:42;;;;;;;17.20;15.40;;;;;;;41.79;19.74;100411.31;4996279;28;20058;-59
2022/07/20 08:58:10;;;;;;;15.38;13.85;;;;;;;41.97;19.52;100404.88;4995481;28;20442;-60
2022/07/20 09:00:40;;;;;;;15.27;13.68;;;;;;;42.18;18.78;100419.19;4996077;28;20054;-60
2022/07/20 09:03:10;;;;;;;16.10;14.50;;;;;;;41.97;18.84;100413.66;4995468;28;20062;-60
2022/07/20 09:05:41;;;;;;;15.70;13.32;;;;;;;42.35;18.37;100405.28;4996129;28;20054;-60
2022/07/20 09:08:13;;;;;;;16.45;14.93;;;;;;;42.86;18.31;100416.75;4995920;28;20432;-60
2022/07/20 09:10:44;;;;;;;15.93;14.20;;;;;;;43.31;18.08;100403.91;4996148;28;20062;-60
2022/07/20 09:13:17;;;;;;;16.30;14.60;;;;;;;43.87;17.28;100402.53;4996227;28;20061;-61
2022/07/20 09:15:47;;;;;;;16.65;14.18;;;;;;;44.30;16.61;100398.81;4996102;28;20479;-61
2022/07/20 09:18:17;;;;;;;17.90;15.10;;;;;;;44.51;16.89;100378.53;4995975;28;20059;-60
2022/07/20 09:20:49;;;;;;;16.65;14.95;;;;;;;45.24;16.38;100383.28;4995621;28;20067;-60
2022/07/20 09:23:19;;;;;;;16.00;14.52;;;;;;;45.95;15.55;100378.72;4995513;28;20491;-60
2022/07/20 09:25:52;;;;;;;15.63;14.07;;;;;;;46.29;15.11;100380.19;4995576;28;20054;-60
2022/07/20 09:28:20;;;;;;;14.63;13.32;;;;;;;46.56;14.90;100386.81;4995435;28;20051;-61
2022/07/20 09:30:52;;;;;;;15.65;14.05;;;;;;;46.90;14.44;100391.91;4995072;28;20058;-60
2022/07/20 09:33:31;;;;;;;14.45;12.93;;;;;;;47.02;14.93;100375.53;4995557;28;20058;-60
2022/07/20 09:36:03;;;;;;;14.43;12.95;;;;;;;47.50;14.47;100370.22;4995047;28;20054;-61
2022/07/20 09:38:34;;;;;;;14.60;13.20;;;;;;;47.79;13.96;100364.34;4995306;28;20061;-61
2022/07/20 09:41:03;;;;;;;14.15;12.93;;;;;;;47.70;14.06;100356.03;4995235;28;20050;-62
2022/07/20 09:43:32;;;;;;;14.48;13.00;;;;;;;48.32;13.44;100337.28;4995313;28;20073;-61
2022/07/20 09:46:18;;;;;;;14.20;12.88;;;;;;;48.32;13.52;100342.38;4995047;28;20050;-60
2022/07/20 09:48:47;;;;;;;14.38;13.07;;;;;;;48.83;13.15;100358.47;4995073;28;20427;-61
2022/07/20 09:51:22;;;;;;;15.15;12.98;;;;;;;49.20;12.96;100368.00;4995225;28;20066;-61
2022/07/20 09:53:51;;;;;;;15.73;14.23;;;;;;;49.44;12.90;100366.66;4995143;28;20061;-61
2022/07/20 09:56:20;;;;;;;15.00;13.50;;;;;;;49.55;12.73;100351.44;4995171;28;20058;-61
2022/07/20 09:58:49;;;;;;;14.57;13.18;;;;;;;49.36;12.68;100352.63;4995188;28;20065;-61
2022/07/20 10:01:19;;;;;;;15.80;13.40;;;;;;;49.88;12.30;100340.50;4994710;28;20057;-61
2022/07/20 10:03:48;;;;;;;14.85;13.57;;;;;;;50.05;12.51;100350.94;4994971;28;20062;-62
2022/07/20 10:06:17;;;;;;;14.30;13.00;;;;;;;50.19;12.38;100349.28;4995003;28;20061;-60
2022/07/20 10:08:47;;;;;;;15.35;13.52;;;;;;;50.62;11.64;100353.25;4994591;28;20069;-60
2022/07/20 10:11:22;;;;;;;13.65;12.43;;;;;;;50.58;12.35;100343.97;4994941;28;20054;-60
2022/07/20 10:13:51;;;;;;;12.80;11.50;;;;;;;50.60;11.79;100346.34;4994874;28;20057;-60
2022/07/20 10:16:28;;;;;;;12.70;11.40;;;;;;;50.26;11.83;100344.75;4994871;28;20059;-60
2022/07/20 10:18:56;;;;;;;12.68;11.43;;;;;;;50.48;12.02;100340.09;4994314;28;20054;-60
2022/07/20 10:21:35;;;;;;;12.48;11.35;;;;;;;50.74;11.44;100345.44;4994718;28;20061;-60
2022/07/20 10:24:22;;;;;;;12.75;11.65;;;;;;;50.94;11.52;100351.66;4994061;28;20057;-60
2022/07/20 10:26:51;;;;;;;12.95;11.65;;;;;;;51.04;11.08;100352.56;4994706;28;20050;-60
2022/07/20 10:29:27;;;;;;;13.00;11.70;;;;;;;51.55;11.00;100348.16;4994100;28;20050;-61
2022/07/20 10:31:56;;;;;;;12.80;11.70;;;;;;;51.86;10.99;100356.75;4993572;28;20412;-60
2022/07/20 10:34:41;;;;;;;12.40;11.27;;;;;;;52.25;10.77;100368.19;4994289;28;20050;-60
2022/07/20 10:37:30;;;;;;;12.68;11.57;;;;;;;52.14;11.11;100375.47;4993987;28;20054;-60
2022/07/20 10:40:12;;;;;;;12.70;11.50;;;;;;;51.60;10.65;100381.19;4994273;28;20069;-60
2022/07/20 10:42:46;;;;;;;12.90;11.45;;;;;;;51.62;11.16;100384.31;4994124;28;20057;-61
2022/07/20 10:45:33;;;;;;;12.40;11.13;;;;;;;51.58;11.41;100389.91;4994178;28;20080;-61
2022/07/20 10:48:17;;;;;;;12.63;11.48;;;;;;;51.33;10.73;100387.75;4992985;28;20506;-61
2022/07/20 10:50:47;;;;;;;12.55;11.25;;;;;;;51.22;11.14;100386.06;4994336;28;20054;-61
2022/07/20 10:53:37;;;;;;;12.02;10.85;;;;;;;51.46;11.00;100381.53;4993701;28;20097;-61
2022/07/20 10:56:07;;;;;;;12.20;11.00;;;;;;;51.32;11.22;100386.94;4993520;28;20514;-61
2022/07/20 10:58:36;;;;;;;12.18;10.93;;;;;;;51.42;10.85;100384.09;4993967;28;20058;-60
2022/07/20 11:01:06;;;;;;;12.10;10.95;;;;;;;50.71;11.65;100381.44;4993907;28;20054;-61
2022/07/20 11:03:37;;;;;;;12.20;10.95;;;;;;;51.04;11.30;100373.31;4993519;28;20073;-61
2022/07/20 11:06:08;;;;;;;13.52;11.38;;;;;;;51.23;11.19;100384.66;4993778;28;20062;-61
2022/07/20 11:08:36;;;;;;;13.77;11.25;;;;;;;51.40;11.01;100380.19;4993572;28;20062;-61
2022/07/20 11:11:07;;;;;;;12.27;11.00;;;;;;;51.54;11.06;100376.28;4993973;28;20054;-61
2022/07/20 11:13:35;;;;;;;12.55;11.40;;;;;;;51.32;11.19;100389.91;4993702;28;20050;-61
2022/07/20 11:16:03;;;;;;;12.48;11.48;;;;;;;51.55;10.76;100380.03;4993559;28;20054;-61
2022/07/20 11:18:32;;;;;;;13.35;12.07;;;;;;;51.45;10.91;100371.03;4993343;28;20054;-61
2022/07/20 11:21:01;;;;;;;15.25;12.32;;;;;;;51.76;10.52;100361.78;4993646;28;20242;-61
2022/07/20 11:23:38;;;;;;;12.18;10.98;;;;;;;52.07;10.57;100365.22;4993582;28;20066;-61
2022/07/20 11:26:07;;;;;;;11.75;10.48;;;;;;;52.04;10.97;100359.72;4992993;28;20058;-61
2022/07/20 11:28:36;;;;;;;11.98;10.88;;;;;;;51.96;10.80;100366.53;4993042;28;20054;-61
2022/07/20 11:31:05;;;;;;;12.23;11.15;;;;;;;51.96;10.57;100366.53;4993016;28;20088;-61
2022/07/20 11:33:35;;;;;;;11.77;10.57;;;;;;;51.97;10.41;100347.31;4993457;28;20407;-61